Time;durP1;ratioP1;P1;durP2;ratioP2;P2;SDS_P1;SDS_P2;PMS_P1;PMS_P2;Temp;Humidity;BMP_temperature;BMP_pressure;BME280_temperature;BME280_humidity;BME280_pressure;Samples;Min_cycle;Max_cycle;Signal;HPM_P1;HPM_P2
2022/01/20 00:01:50;;;;;;;;;;;5.80;98.10;;;5.29;100.00;99794.47;5015379;28;20275;-66
2022/01/20 00:04:23;;;;;;;;;;;5.80;98.20;;;5.30;100.00;99793.59;5015443;28;19917;-66
2022/01/20 00:23:41;;;;;;;;;;;5.60;98.10;;;5.10;100.00;99802.16;5014951;28;19929;-66
2022/01/20 00:26:08;;;;;;;;;;;5.60;98.20;;;5.14;100.00;99793.44;5013617;28;20367;-66
2022/01/20 00:28:46;;;;;;;;;;;5.60;98.30;;;5.15;100.00;99807.88;5014681;28;19918;-65
2022/01/20 00:33:56;;;;;;;;;;;5.60;98.40;;;5.16;100.00;99813.81;5013740;28;19917;-66
2022/01/20 00:39:06;;;;;;;;;;;5.60;98.40;;;5.04;100.00;99814.34;5014568;28;19936;-65
2022/01/20 00:41:32;;;;;;;;;;;5.50;98.30;;;4.97;100.00;99812.06;4996850;28;19917;-65
2022/01/20 00:43:57;;;;;;;;;;;5.50;98.30;;;5.01;100.00;99809.38;5013369;28;19917;-65
2022/01/20 00:46:23;;;;;;;;;;;5.50;98.40;;;5.13;100.00;99824.19;5014180;28;19924;-65
2022/01/20 00:48:49;;;;;;;;;;;5.50;98.40;;;5.07;100.00;99827.00;4997148;28;19917;-65
2022/01/20 00:51:15;;;;;;;;;;;5.50;98.50;;;4.87;100.00;99792.88;5014366;28;19921;-65
2022/01/20 00:53:44;;;;;;;;;;;5.50;98.60;;;5.05;100.00;99844.13;5014285;28;20287;-65
2022/01/20 00:56:11;;;;;;;;;;;5.50;98.70;;;4.74;100.00;99799.41;5013335;28;19918;-65
2022/01/20 00:58:38;;;;;;;;;;;5.50;98.70;;;4.86;100.00;99839.78;5012994;28;19917;-65
2022/01/20 01:01:04;;;;;;;;;;;5.50;98.80;;;5.04;100.00;99843.31;5013182;28;19918;-65
2022/01/20 01:03:29;;;;;;;;;;;5.40;98.70;;;5.04;100.00;99852.69;4996526;28;19918;-65
2022/01/20 01:08:30;;;;;;;;;;;5.50;98.90;;;4.97;100.00;99839.34;5013716;28;19951;-64
2022/01/20 01:10:56;;;;;;;;;;;5.40;99.00;;;4.94;100.00;99845.41;5012768;28;19917;-65
2022/01/20 01:13:24;;;;;;;;;;;5.50;99.40;;;4.90;100.00;99835.38;4996139;28;20336;-65
2022/01/20 01:15:51;;;;;;;;;;;5.40;98.90;;;4.66;100.00;99844.06;5014172;28;20297;-65
2022/01/20 01:23:39;;;;;;;;;;;5.30;98.90;;;4.86;100.00;99842.34;5012390;28;19918;-65
2022/01/20 01:26:06;;;;;;;;;;;5.30;99.00;;;4.94;100.00;99855.63;5014092;28;20375;-65
2022/01/20 01:28:32;;;;;;;;;;;5.40;99.10;;;4.87;100.00;99855.97;5012563;28;19917;-65
2022/01/20 01:33:52;;;;;;;;;;;5.30;99.10;;;4.94;100.00;99854.84;5012634;28;20028;-65
2022/01/20 01:36:21;;;;;;;;;;;5.40;99.20;;;4.85;100.00;99848.38;5012525;28;19944;-65
2022/01/20 01:38:47;;;;;;;;;;;5.30;99.00;;;4.80;100.00;99832.38;4996299;28;19929;-65
2022/01/20 01:41:15;;;;;;;;;;;5.30;99.10;;;4.93;100.00;99846.34;5013767;28;19917;-65
2022/01/20 01:43:44;;;;;;;;;;;5.30;99.10;;;4.13;100.00;99696.34;5013371;28;19923;-65
2022/01/20 01:46:11;;;;;;;;;;;5.30;99.20;;;4.89;100.00;99839.66;5012444;28;20008;-65
2022/01/20 01:48:41;;;;;;;;;;;5.30;99.20;;;4.77;100.00;99818.91;5012175;28;19921;-65
2022/01/20 01:51:07;;;;;;;;;;;5.40;99.20;;;4.94;100.00;99847.97;5013771;28;19918;-65
2022/01/20 01:53:33;;;;;;;;;;;5.40;99.30;;;4.84;100.00;99843.31;5012086;28;20389;-65
2022/01/20 01:55:59;;;;;;;;;;;5.40;99.40;;;4.78;100.00;99825.66;5012340;28;19957;-65
2022/01/20 01:58:25;;;;;;;;;;;5.40;99.30;;;4.55;100.00;99795.94;5017206;28;19925;-65
2022/01/20 02:00:51;;;;;;;;;;;5.40;99.20;;;4.72;100.00;99824.19;5016319;28;19918;-65
2022/01/20 02:03:16;;;;;;;;;;;5.40;99.00;;;4.79;100.00;99843.50;5016437;28;19967;-65
2022/01/20 02:06:07;;;;;;;;;;;5.40;99.30;;;4.89;100.00;99849.91;5017525;28;19921;-65
2022/01/20 02:08:35;;;;;;;;;;;5.30;99.00;;;4.91;100.00;99840.44;5015418;28;19925;-64
2022/01/20 02:19:13;;;;;;;;;;;5.30;99.20;;;4.67;100.00;99785.22;5002687;28;19920;-65
2022/01/20 02:21:52;;;;;;;;;;;5.30;99.30;;;5.00;100.00;99831.56;5015733;28;19917;-65
2022/01/20 02:24:18;;;;;;;;;;;5.30;99.40;;;4.88;100.00;99821.84;5017231;28;19914;-65
2022/01/20 02:26:44;;;;;;;;;;;5.30;99.50;;;4.81;100.00;99836.59;5015964;28;19925;-65
2022/01/20 02:29:11;;;;;;;;;;;5.30;99.40;;;4.91;100.00;99832.78;4999687;28;19918;-65
2022/01/20 02:31:36;;;;;;;;;;;5.30;99.40;;;4.75;100.00;99826.63;5015843;28;20012;-65
2022/01/20 02:34:02;;;;;;;;;;;5.30;99.50;;;4.36;100.00;99756.72;5015865;28;20013;-65
2022/01/20 02:36:29;;;;;;;;;;;5.30;99.40;;;4.90;100.00;99841.34;4999080;28;20290;-65
2022/01/20 02:39:00;;;;;;;;;;;5.30;99.40;;;4.91;100.00;99837.88;5016793;28;19922;-65
2022/01/20 02:46:55;;;;;;;;;;;5.30;99.30;;;4.49;100.00;99766.38;5016756;28;20306;-65
2022/01/20 02:49:20;;;;;;;;;;;5.30;99.20;;;4.93;100.00;99838.66;5015453;28;19917;-65
2022/01/20 02:51:51;;;;;;;;;;;5.40;99.40;;;4.96;100.00;99837.69;5016597;28;19918;-65
2022/01/20 02:54:17;;;;;;;;;;;5.40;99.40;;;4.44;100.00;99770.03;5015398;28;19921;-65
2022/01/20 02:56:43;;;;;;;;;;;5.40;99.20;;;4.90;100.00;99838.78;4998829;28;19924;-65
2022/01/20 02:59:08;;;;;;;;;;;5.40;99.20;;;4.92;100.00;99839.56;5015658;28;20413;-65
2022/01/20 03:01:34;;;;;;;;;;;5.40;99.20;;;4.87;100.00;99836.34;5014994;28;19917;-65
2022/01/20 03:04:02;;;;;;;;;;;5.30;99.20;;;4.89;100.00;99837.09;5016763;28;19917;-65
2022/01/20 03:06:27;;;;;;;;;;;5.40;99.40;;;4.86;100.00;99841.50;5015814;28;19917;-65
2022/01/20 03:08:53;;;;;;;;;;;5.40;99.40;;;4.74;100.00;99830.09;5015887;28;19921;-65
2022/01/20 03:11:19;;;;;;;;;;;5.40;99.40;;;4.81;100.00;99844.28;5016381;28;19917;-65
2022/01/20 03:13:45;;;;;;;;;;;5.30;99.40;;;4.59;100.00;99806.00;5015196;28;19928;-65
2022/01/20 03:16:10;;;;;;;;;;;5.30;99.40;;;4.86;100.00;99849.19;5031383;28;20363;-65
2022/01/20 03:18:36;;;;;;;;;;;5.30;99.40;;;4.79;100.00;99846.03;5016019;28;20377;-65
2022/01/20 03:21:02;;;;;;;;;;;5.30;99.50;;;4.52;100.00;99812.25;5031603;28;19924;-65
2022/01/20 03:23:28;;;;;;;;;;;5.30;99.40;;;4.73;100.00;99853.97;5016198;28;20371;-65
2022/01/20 03:25:53;;;;;;;;;;;5.30;99.50;;;4.83;100.00;99846.75;5016048;28;19917;-65
2022/01/20 03:28:19;;;;;;;;;;;5.30;99.50;;;4.90;100.00;99833.66;5015224;28;19917;-65
2022/01/20 03:30:45;;;;;;;;;;;5.30;99.60;;;4.80;100.00;99836.66;5015709;28;19921;-65
2022/01/20 03:33:11;;;;;;;;;;;5.30;99.60;;;4.92;100.00;99838.72;5014862;28;19988;-65
2022/01/20 03:35:37;;;;;;;;;;;5.30;99.60;;;4.81;100.00;99828.94;5014365;28;19921;-65
2022/01/20 03:38:03;;;;;;;;;;;5.30;99.50;;;4.78;100.00;99835.88;5015700;28;19921;-65
2022/01/20 03:40:29;;;;;;;;;;;5.30;99.60;;;4.74;100.00;99835.19;5014636;28;19951;-65
2022/01/20 03:42:54;;;;;;;;;;;5.30;99.60;;;4.45;100.00;99781.88;5015500;28;19922;-65
2022/01/20 03:45:25;;;;;;;;;;;5.20;99.50;;;4.77;100.00;99836.81;5014279;28;19940;-65
2022/01/20 03:47:52;;;;;;;;;;;5.30;99.60;;;4.74;100.00;99842.88;5015686;28;20011;-65
2022/01/20 03:53:02;;;;;;;;;;;5.20;99.60;;;4.54;100.00;99786.63;5015501;28;19972;-65
2022/01/20 03:55:27;;;;;;;;;;;5.20;99.60;;;4.82;100.00;99834.88;5015913;28;20282;-65
2022/01/20 03:57:53;;;;;;;;;;;5.20;99.70;;;4.80;100.00;99841.78;5014218;28;19917;-65
2022/01/20 04:00:19;;;;;;;;;;;5.20;99.90;;;4.79;100.00;99837.53;5014374;28;19932;-65
2022/01/20 04:02:45;;;;;;;;;;;5.20;99.70;;;4.75;100.00;99838.59;5014042;28;20301;-65
2022/01/20 04:05:11;;;;;;;;;;;5.20;99.60;;;4.60;100.00;99852.81;5015390;28;19917;-65
2022/01/20 04:07:36;;;;;;;;;;;5.10;99.50;;;4.67;100.00;99858.50;5014935;28;20281;-65
2022/01/20 04:10:03;;;;;;;;;;;5.10;99.40;;;4.65;100.00;99853.47;4997603;28;19921;-65
2022/01/20 04:12:29;;;;;;;;;;;5.10;99.60;;;4.62;100.00;99842.50;5030515;28;20371;-65
2022/01/20 04:14:55;;;;;;;;;;;5.10;99.70;;;4.74;100.00;99847.13;5014853;28;19921;-65
2022/01/20 04:17:21;;;;;;;;;;;5.20;99.80;;;4.37;100.00;99796.69;5030447;28;20362;-65
2022/01/20 04:19:47;;;;;;;;;;;5.20;99.80;;;4.67;100.00;99846.56;5014132;28;19917;-65
2022/01/20 04:22:13;;;;;;;;;;;5.20;99.60;;;4.76;100.00;99840.25;5014034;28;19917;-65
2022/01/20 04:24:38;;;;;;;;;;;5.20;99.70;;;4.74;100.00;99842.03;4997279;28;19923;-65
2022/01/20 04:27:04;;;;;;;;;;;5.20;99.60;;;4.47;100.00;99805.66;5014093;28;19930;-65
2022/01/20 04:29:32;;;;;;;;;;;5.20;99.60;;;4.80;100.00;99852.81;5013683;28;20355;-65
2022/01/20 04:31:58;;;;;;;;;;;5.20;99.60;;;4.60;100.00;99814.50;5013480;28;20432;-65
2022/01/20 04:34:23;;;;;;;;;;;5.20;99.60;;;4.52;100.00;99831.88;5014808;28;19918;-65
2022/01/20 04:36:52;;;;;;;;;;;5.20;99.50;;;4.65;100.00;99845.78;4997055;28;19994;-65
2022/01/20 04:39:21;;;;;;;;;;;5.20;99.50;;;4.77;100.00;99847.88;5013541;28;19917;-65
2022/01/20 04:41:47;;;;;;;;;;;5.20;99.60;;;4.60;100.00;99824.72;4997416;28;20078;-65
2022/01/20 04:44:19;;;;;;;;;;;5.20;99.70;;;4.75;100.00;99844.53;5014785;28;19924;-65
2022/01/20 04:46:54;;;;;;;;;;;5.20;99.80;;;4.77;100.00;99847.88;5013389;28;20003;-65
2022/01/20 04:57:47;;;;;;;;;;;5.20;99.70;;;4.67;100.00;99840.63;5014096;28;20041;-65
2022/01/20 05:00:13;;;;;;;;;;;5.20;99.80;;;4.46;100.00;99809.09;5013629;28;19921;-65
2022/01/20 05:02:39;;;;;;;;;;;5.20;99.80;;;4.46;100.00;99824.41;5013017;28;19914;-65
2022/01/20 05:05:08;;;;;;;;;;;5.20;99.70;;;4.62;100.00;99858.69;5013349;28;19921;-65
2022/01/20 05:07:33;;;;;;;;;;;5.10;99.60;;;4.60;100.00;99852.81;5014394;28;19918;-65
2022/01/20 05:09:59;;;;;;;;;;;5.10;99.70;;;4.68;100.00;99849.97;5013788;28;19922;-65
2022/01/20 05:12:35;;;;;;;;;;;5.10;99.70;;;4.63;100.00;99827.13;5014064;28;19921;-65
2022/01/20 05:15:01;;;;;;;;;;;5.10;99.80;;;4.59;100.00;99833.28;5014015;28;19921;-65
2022/01/20 05:17:27;;;;;;;;;;;5.10;99.80;;;4.64;100.00;99846.69;5012919;28;19972;-65
2022/01/20 05:19:53;;;;;;;;;;;5.10;99.80;;;4.60;100.00;99840.06;5014303;28;19928;-65
2022/01/20 05:22:18;;;;;;;;;;;5.10;99.70;;;4.48;100.00;99849.03;5014014;28;20329;-65
2022/01/20 05:24:44;;;;;;;;;;;5.10;99.50;;;4.54;100.00;99841.09;5013055;28;19917;-65
2022/01/20 05:27:10;;;;;;;;;;;5.00;99.50;;;4.57;100.00;99852.94;4996525;28;20325;-65
2022/01/20 05:29:36;;;;;;;;;;;5.00;99.60;;;4.63;100.00;99855.22;5012372;28;20266;-65
2022/01/20 05:32:02;;;;;;;;;;;5.00;99.60;;;4.18;100.00;99797.44;5012913;28;19917;-65
2022/01/20 05:34:27;;;;;;;;;;;5.10;99.70;;;4.66;100.00;99873.00;5012647;28;19924;-65
2022/01/20 05:36:53;;;;;;;;;;;5.10;99.60;;;4.63;100.00;99874.84;5012198;28;19917;-65
2022/01/20 05:39:19;;;;;;;;;;;5.10;99.70;;;4.73;100.00;99887.22;5012359;28;19925;-65
2022/01/20 05:41:45;;;;;;;;;;;5.10;99.70;;;4.48;100.00;99848.19;5013414;28;19940;-65
2022/01/20 05:44:10;;;;;;;;;;;5.10;99.80;;;4.70;100.00;99881.38;5014124;28;19943;-65
2022/01/20 05:46:43;;;;;;;;;;;5.10;99.70;;;4.43;100.00;99839.88;5013865;28;19918;-65
2022/01/20 05:49:09;;;;;;;;;;;5.10;99.70;;;4.74;100.00;99872.69;5013533;28;19953;-65
2022/01/20 05:51:39;;;;;;;;;;;5.20;99.90;;;4.72;100.00;99870.19;5012519;28;20012;-65
2022/01/20 05:54:04;;;;;;;;;;;5.20;99.90;;;4.46;100.00;99829.53;5012547;28;19913;-65
2022/01/20 05:56:30;;;;;;;;;;;5.20;99.90;;;4.68;100.00;99871.25;5028570;28;19980;-65
2022/01/20 05:58:56;;;;;;;;;;;5.10;99.90;;;4.35;100.00;99826.59;5013354;28;19917;-65
2022/01/20 06:01:22;;;;;;;;;;;5.10;99.90;;;4.65;100.00;99862.84;5013514;28;19928;-65
2022/01/20 06:03:48;;;;;;;;;;;5.10;99.90;;;4.74;100.00;99870.97;5013347;28;19917;-65
2022/01/20 06:06:14;;;;;;;;;;;5.10;99.90;;;4.80;100.00;99867.34;5013701;28;19918;-65
2022/01/20 06:08:44;;;;;;;;;;;5.20;99.90;;;4.77;100.00;99864.91;5013354;28;19975;-65
2022/01/20 06:11:09;;;;;;;;;;;5.20;99.90;;;4.43;100.00;99816.91;4996521;28;20011;-65
2022/01/20 06:13:35;;;;;;;;;;;5.20;99.90;;;4.66;100.00;99875.56;5013604;28;19917;-64
2022/01/20 06:16:01;;;;;;;;;;;5.20;99.90;;;4.75;100.00;99869.25;4995729;28;19939;-65
2022/01/20 06:18:27;;;;;;;;;;;5.20;99.80;;;4.67;100.00;99853.41;5013240;28;19924;-65
2022/01/20 06:20:53;;;;;;;;;;;5.20;99.80;;;4.47;100.00;99833.75;5013104;28;19918;-65
2022/01/20 06:23:19;;;;;;;;;;;5.20;99.80;;;4.59;100.00;99844.31;4995679;28;20008;-65
2022/01/20 06:25:45;;;;;;;;;;;5.20;99.80;;;4.79;100.00;99876.72;5013260;28;19924;-65
2022/01/20 06:28:11;;;;;;;;;;;5.20;99.80;;;4.79;100.00;99875.88;4995804;28;19925;-65
2022/01/20 06:30:37;;;;;;;;;;;5.20;99.80;;;4.83;100.00;99873.16;5012186;28;19925;-65
2022/01/20 06:33:03;;;;;;;;;;;5.30;99.90;;;4.84;100.00;99863.78;5013169;28;19921;-65
2022/01/20 06:35:29;;;;;;;;;;;5.20;99.90;;;4.74;100.00;99858.19;5012222;28;19917;-65
2022/01/20 06:37:54;;;;;;;;;;;5.20;99.90;;;4.81;100.00;99858.78;5012986;28;19944;-65
2022/01/20 06:40:20;;;;;;;;;;;5.30;99.90;;;4.77;100.00;99860.63;5011731;28;20363;-64
2022/01/20 06:42:46;;;;;;;;;;;5.30;99.90;;;4.72;100.00;99857.41;5014081;28;19918;-65
2022/01/20 06:45:13;;;;;;;;;;;5.20;99.90;;;4.77;100.00;99859.81;5015670;28;19917;-65
2022/01/20 06:47:39;;;;;;;;;;;5.20;99.90;;;4.78;100.00;99853.78;4999366;28;20008;-64
2022/01/20 06:50:05;;;;;;;;;;;5.20;99.90;;;4.71;100.00;99853.19;5015191;28;19965;-64
2022/01/20 06:52:31;;;;;;;;;;;5.20;99.90;;;4.79;100.00;99863.09;4999299;28;19921;-65
2022/01/20 06:54:58;;;;;;;;;;;5.20;99.80;;;4.86;100.00;99867.91;5015185;28;19940;-65
2022/01/20 06:57:24;;;;;;;;;;;5.30;99.80;;;4.84;100.00;99859.50;5015367;28;19918;-64
2022/01/20 06:59:49;;;;;;;;;;;5.30;99.80;;;4.81;100.00;99839.16;5015116;28;19920;-65
2022/01/20 07:02:16;;;;;;;;;;;5.30;99.70;;;4.91;100.00;99847.28;4999184;28;19925;-64
2022/01/20 07:04:43;;;;;;;;;;;5.30;99.50;;;4.83;100.00;99849.31;4982822;28;19914;-64
2022/01/20 07:07:09;;;;;;;;;;;5.30;99.60;;;4.90;100.00;99864.34;5015185;28;19917;-64
2022/01/20 07:09:35;;;;;;;;;;;5.30;99.60;;;4.80;100.00;99847.72;5016052;28;19932;-64
2022/01/20 07:12:01;;;;;;;;;;;5.30;99.90;;;4.66;100.00;99826.19;4998696;28;19952;-65
2022/01/20 07:14:27;;;;;;;;;;;5.30;99.70;;;4.77;100.00;99867.47;5031488;28;20382;-64
2022/01/20 07:16:53;;;;;;;;;;;5.20;99.60;;;4.74;100.00;99882.94;5031346;28;19921;-64
2022/01/20 07:19:20;;;;;;;;;;;5.20;99.50;;;4.80;100.00;99888.63;5016146;28;20414;-64
2022/01/20 07:21:45;;;;;;;;;;;5.20;99.60;;;4.77;100.00;99893.03;5014921;28;20418;-65
2022/01/20 07:24:11;;;;;;;;;;;5.20;99.60;;;4.74;100.00;99911.88;5014767;28;19917;-63
2022/01/20 07:26:37;;;;;;;;;;;5.20;99.60;;;4.68;100.00;99919.78;5016399;28;19940;-63
2022/01/20 07:29:03;;;;;;;;;;;5.20;99.50;;;4.70;100.00;99922.25;5015685;28;20293;-63
2022/01/20 07:31:29;;;;;;;;;;;5.20;99.60;;;4.76;100.00;99917.78;5011638;28;19919;-71
2022/01/20 07:33:55;;;;;;;;;;;5.20;99.50;;;4.78;100.00;99917.69;5022106;28;19928;-79
2022/01/20 07:36:20;;;;;;;;;;;5.20;99.40;;;4.56;100.00;99884.50;5015271;28;19917;-79
2022/01/20 07:38:46;;;;;;;;;;;5.20;99.30;;;4.73;100.00;99930.66;5048232;28;19925;-76
2022/01/20 07:41:12;;;;;;;;;;;5.20;99.20;;;4.68;100.00;99909.56;5015212;28;19917;-75
2022/01/20 07:43:39;;;;;;;;;;;5.20;99.10;;;4.80;100.00;99928.69;5016343;28;20302;-76
2022/01/20 07:46:05;;;;;;;;;;;5.20;98.80;;;4.87;100.00;99950.53;5031813;28;19918;-74
2022/01/20 07:48:30;;;;;;;;;;;5.20;98.90;;;4.83;100.00;99937.06;5047604;28;20008;-75
2022/01/20 07:50:56;;;;;;;;;;;5.20;98.80;;;4.79;100.00;99944.91;5047191;28;19996;-78
2022/01/20 07:53:22;;;;;;;;;;;5.20;98.60;;;4.79;100.00;99948.28;5015008;28;20276;-79
2022/01/20 07:55:48;;;;;;;;;;;5.20;98.50;;;4.80;100.00;99949.13;5014248;28;19925;-77
2022/01/20 07:58:13;;;;;;;;;;;5.20;98.50;;;4.80;100.00;99952.53;5015421;28;19918;-78
2022/01/20 08:00:39;;;;;;;;;;;5.20;98.60;;;4.86;100.00;99943.75;5046799;28;19914;-78
2022/01/20 08:03:05;;;;;;;;;;;5.30;98.80;;;4.99;100.00;99950.06;5046710;28;20449;-71
2022/01/20 08:05:32;;;;;;;;;;;5.30;98.80;;;4.99;100.00;99929.63;5009475;28;20024;-75
2022/01/20 08:07:57;;;;;;;;;;;5.40;98.90;;;5.25;100.00;99944.72;4997978;28;19921;-76
2022/01/20 08:10:23;;;;;;;;;;;5.50;98.80;;;5.36;100.00;99947.66;5014356;28;19927;-74
2022/01/20 08:12:49;;;;;;;;;;;5.60;98.80;;;5.45;100.00;99943.88;5015067;28;19921;-75
2022/01/20 08:15:16;;;;;;;;;;;5.80;98.60;;;5.12;100.00;99891.56;5013791;28;19975;-77
2022/01/20 08:17:42;;;;;;;;;;;5.80;98.00;;;5.23;100.00;99945.69;5013974;28;19917;-75
2022/01/20 08:20:08;;;;;;;;;;;5.80;97.70;;;5.25;100.00;99959.25;5013840;28;20394;-76
2022/01/20 08:22:35;;;;;;;;;;;5.70;97.60;;;4.92;100.00;99903.47;5014332;28;20020;-76
2022/01/20 08:25:04;;;;;;;;;;;5.70;97.70;;;5.17;100.00;99949.34;5021013;28;19935;-72
2022/01/20 08:27:30;;;;;;;;;;;5.70;97.80;;;5.21;100.00;99955.13;5004467;28;20008;-74
2022/01/20 08:29:56;;;;;;;;;;;5.70;97.90;;;5.12;100.00;99948.66;5017820;28;19940;-72
2022/01/20 08:32:23;;;;;;;;;;;5.60;98.00;;;5.06;100.00;99948.09;5020271;28;19924;-69
2022/01/20 08:34:49;;;;;;;;;;;5.60;98.00;;;5.15;100.00;99970.75;5020303;28;19917;-68
2022/01/20 08:37:15;;;;;;;;;;;5.60;98.10;;;5.03;100.00;99976.34;5020916;28;19917;-72
2022/01/20 08:39:46;;;;;;;;;;;5.60;97.90;;;5.11;100.00;99981.97;5001307;28;19917;-72
2022/01/20 08:42:12;;;;;;;;;;;5.60;97.90;;;5.11;100.00;99975.13;5013503;28;20011;-73
2022/01/20 08:44:39;;;;;;;;;;;5.60;98.00;;;5.12;100.00;99968.28;5013579;28;20330;-73
2022/01/20 08:47:09;;;;;;;;;;;5.60;98.00;;;5.20;100.00;99982.44;5013326;28;19965;-74
2022/01/20 08:49:36;;;;;;;;;;;5.60;98.20;;;5.20;100.00;99994.41;5014257;28;19918;-76
2022/01/20 08:52:03;;;;;;;;;;;5.60;98.30;;;5.13;100.00;100003.22;5014441;28;19917;-76
2022/01/20 08:54:28;;;;;;;;;;;5.70;98.40;;;5.24;100.00;100001.06;4996859;28;19918;-72
2022/01/20 08:56:54;;;;;;;;;;;5.70;98.10;;;4.86;100.00;99916.47;5014378;28;19920;-72
2022/01/20 08:59:20;;;;;;;;;;;5.70;98.10;;;5.44;100.00;99979.75;5013125;28;19940;-76
2022/01/20 09:01:46;;;;;;;;;;;5.80;98.10;;;5.60;100.00;99993.63;5014199;28;19917;-73
2022/01/20 09:04:12;;;;;;;;;;;5.90;98.20;;;5.84;100.00;100000.25;5013813;28;20285;-77
2022/01/20 09:06:38;;;;;;;;;;;6.10;98.10;;;6.22;100.00;100002.88;5012706;28;19917;-72
2022/01/20 09:09:04;;;;;;;;;;;6.40;98.20;;;6.31;100.00;100000.75;5012695;28;20367;-73
2022/01/20 09:11:36;;;;;;;;;;;6.50;98.00;;;6.23;100.00;100005.38;5014308;28;19921;-73
2022/01/20 09:16:46;;;;;;;;;;;6.70;97.00;;;5.92;100.00;99998.22;5014074;28;20452;-74
2022/01/20 09:19:12;;;;;;;;;;;6.70;96.60;;;5.77;100.00;100009.06;5012646;28;19921;-73
2022/01/20 09:21:39;;;;;;;;;;;6.50;96.10;;;5.69;100.00;100000.88;5012825;28;19919;-73
2022/01/20 09:24:05;;;;;;;;;;;6.40;96.10;;;5.68;100.00;100004.34;5012747;28;20390;-73
2022/01/20 09:26:31;;;;;;;;;;;6.30;96.10;;;5.68;100.00;100005.16;5012720;28;20009;-74
2022/01/20 09:28:57;;;;;;;;;;;6.30;96.40;;;5.59;100.00;99995.34;5012489;28;20442;-71
2022/01/20 09:31:25;;;;;;;;;;;6.20;96.50;;;5.45;100.00;99953.28;5028898;28;19929;-74
2022/01/20 09:33:52;;;;;;;;;;;6.30;96.70;;;5.34;100.00;99952.03;5013873;28;20023;-72
2022/01/20 09:36:17;;;;;;;;;;;6.20;96.60;;;5.70;100.00;99994.88;4996438;28;20286;-71
2022/01/20 09:38:43;;;;;;;;;;;6.20;96.70;;;5.77;100.00;99986.00;5012339;28;19917;-70
2022/01/20 09:41:09;;;;;;;;;;;6.20;96.90;;;5.78;100.00;99991.97;5012293;28;19964;-75
2022/01/20 09:43:35;;;;;;;;;;;6.20;96.80;;;5.74;100.00;99986.16;5013587;28;19926;-72
2022/01/20 09:46:01;;;;;;;;;;;6.20;96.70;;;5.56;100.00;99967.28;4996046;28;19963;-76
2022/01/20 09:48:27;;;;;;;;;;;6.20;96.70;;;5.65;100.00;99987.38;5012728;28;19967;-77
2022/01/20 09:50:53;;;;;;;;;;;6.20;96.70;;;5.80;100.00;99979.94;4995949;28;19923;-71
2022/01/20 09:53:19;;;;;;;;;;;6.20;96.60;;;5.89;100.00;99965.06;5013781;28;19917;-73
2022/01/20 09:55:45;;;;;;;;;;;6.30;96.80;;;6.26;100.00;99992.41;5013746;28;19919;-72
2022/01/20 09:58:11;;;;;;;;;;;6.40;96.80;;;6.55;100.00;99995.41;4995722;28;19914;-71
2022/01/20 10:00:37;;;;;;;;;;;6.70;96.90;;;6.59;100.00;99992.63;5012744;28;19918;-75
2022/01/20 10:03:06;;;;;;;;;;;7.00;96.20;;;6.55;100.00;100005.66;4995998;28;19924;-73
2022/01/20 10:05:34;;;;;;;;;;;7.10;95.30;;;6.31;100.00;99979.41;4996112;28;19924;-74
2022/01/20 10:08:02;;;;;;;;;;;7.10;94.60;;;6.43;100.00;100019.84;5012417;28;19942;-76
2022/01/20 10:10:37;;;;;;;;;;;7.00;94.30;;;6.43;100.00;100007.88;5013274;28;19921;-74
2022/01/20 10:13:07;;;;;;;;;;;7.00;94.40;;;6.32;100.00;100004.13;5013303;28;20378;-76
2022/01/20 10:15:33;;;;;;;;;;;6.90;94.20;;;6.16;100.00;99962.16;5012444;28;19917;-75
2022/01/20 10:18:04;;;;;;;;;;;7.00;94.40;;;6.43;100.00;100007.88;5014855;28;20282;-77
2022/01/20 10:20:30;;;;;;;;;;;7.00;94.40;;;6.43;100.00;100013.00;5016130;28;19920;-77
2022/01/20 10:22:56;;;;;;;;;;;7.00;94.30;;;6.47;100.00;99982.94;4999766;28;19917;-75
2022/01/20 10:25:22;;;;;;;;;;;7.10;94.30;;;6.57;100.00;99973.94;5017158;28;19917;-76
2022/01/20 10:27:51;;;;;;;;;;;7.20;94.00;;;6.76;100.00;100013.19;5017395;28;19917;-73
2022/01/20 10:30:17;;;;;;;;;;;7.20;93.60;;;6.24;100.00;99939.59;5017003;28;19972;-73
2022/01/20 10:32:50;;;;;;;;;;;7.20;93.30;;;6.38;100.00;99956.00;5015751;28;19917;-72
2022/01/20 10:35:18;;;;;;;;;;;7.20;93.00;;;6.66;100.00;99998.31;4983006;28;19995;-73
2022/01/20 10:38:15;;;;;;;;;;;7.20;93.00;;;6.68;100.00;100006.75;5015502;28;20232;-75
2022/01/20 10:40:54;;;;;;;;;;;7.20;93.10;;;6.68;100.00;99958.03;5000240;28;19949;-71
2022/01/20 10:43:24;;;;;;;;;;;7.30;93.20;;;6.71;100.00;99975.84;5015937;28;19913;-73
2022/01/20 10:46:11;;;;;;;;;;;7.40;92.80;;;6.69;100.00;100000.72;5016873;28;19917;-73
2022/01/20 10:48:36;;;;;;;;;;;7.40;92.20;;;6.56;100.00;100002.19;5015844;28;19914;-73
2022/01/20 10:51:02;;;;;;;;;;;7.40;92.20;;;6.60;100.00;99993.44;4999182;28;19914;-68
2022/01/20 10:53:28;;;;;;;;;;;7.30;92.40;;;6.61;100.00;100006.19;5016864;28;19963;-73
2022/01/20 10:56:04;;;;;;;;;;;7.30;92.50;;;6.55;100.00;100010.78;4999577;28;19921;-72
2022/01/20 10:58:31;;;;;;;;;;;7.20;92.50;;;6.49;100.00;100005.03;5015249;28;20298;-69
2022/01/20 11:00:56;;;;;;;;;;;7.20;92.70;;;6.47;100.00;99998.31;5016526;28;19924;-64
2022/01/20 11:03:24;;;;;;;;;;;7.10;93.00;;;6.34;100.00;99998.03;4999157;28;20019;-75
2022/01/20 11:05:51;;;;;;;;;;;7.10;93.10;;;6.54;100.00;100007.38;5015216;28;20271;-75
2022/01/20 11:08:17;;;;;;;;;;;7.10;92.60;;;6.61;100.00;99990.81;5014676;28;19931;-75
2022/01/20 11:10:44;;;;;;;;;;;7.10;92.60;;;6.60;100.00;99978.06;5015195;28;19921;-75
2022/01/20 11:13:10;;;;;;;;;;;7.10;92.40;;;6.63;100.00;99948.00;5014837;28;19917;-75
2022/01/20 11:15:36;;;;;;;;;;;7.20;92.40;;;7.11;100.00;99967.91;5016739;28;20016;-75
2022/01/20 11:18:02;;;;;;;;;;;7.40;93.00;;;7.16;100.00;99958.25;5014773;28;19966;-71
2022/01/20 11:20:30;;;;;;;;;;;7.60;92.60;;;7.18;100.00;99953.84;5015244;28;20012;-74
2022/01/20 11:22:56;;;;;;;;;;;7.70;91.80;;;7.28;100.00;99958.53;5015012;28;19980;-75
2022/01/20 11:25:23;;;;;;;;;;;7.80;91.40;;;6.99;100.00;99904.38;5015903;28;19917;-72
2022/01/20 11:28:07;;;;;;;;;;;7.80;91.20;;;7.24;100.00;99956.16;5016328;28;19917;-73
2022/01/20 11:30:35;;;;;;;;;;;7.80;91.50;;;7.07;100.00;99933.03;5015067;28;19913;-72
2022/01/20 11:33:05;;;;;;;;;;;7.80;91.50;;;7.21;100.00;99969.13;5015685;28;20302;-73
2022/01/20 11:35:47;;;;;;;;;;;7.90;91.60;;;7.11;100.00;99960.19;4998500;28;19913;-73
2022/01/20 11:38:18;;;;;;;;;;;7.80;91.10;;;7.03;100.00;99961.47;5015529;28;19928;-74
2022/01/20 11:40:52;;;;;;;;;;;7.70;91.00;;;6.96;100.00;99950.69;5016050;28;19991;-73
2022/01/20 11:43:19;;;;;;;;;;;7.60;90.90;;;6.80;100.00;99970.28;5015625;28;19940;-74
2022/01/20 11:45:47;;;;;;;;;;;7.50;91.10;;;6.48;100.00;99941.84;5014409;28;19960;-71
2022/01/20 11:48:21;;;;;;;;;;;7.30;91.30;;;6.40;100.00;99982.38;5014264;28;20032;-73
2022/01/20 11:51:02;;;;;;;;;;;7.10;92.00;;;5.81;100.00;99985.00;5015700;28;20375;-75
2022/01/20 11:53:27;;;;;;;;;;;6.90;93.50;;;5.66;100.00;99981.38;5015648;28;20388;-78
2022/01/20 11:55:54;;;;;;;;;;;6.60;94.00;;;5.60;100.00;99998.72;4998008;28;19917;-75
2022/01/20 11:58:24;;;;;;;;;;;6.30;94.20;;;5.42;100.00;99990.09;5014102;28;19917;-74
2022/01/20 12:01:19;;;;;;;;;;;6.10;94.60;;;5.41;100.00;99985.84;5014346;28;19949;-76
2022/01/20 12:03:51;;;;;;;;;;;6.00;95.20;;;5.40;100.00;99988.47;5002633;28;19920;-75
2022/01/20 12:06:23;;;;;;;;;;;5.90;95.40;;;5.38;100.00;99969.78;5013921;28;19917;-75
2022/01/20 12:08:56;;;;;;;;;;;5.90;95.80;;;5.39;100.00;99959.50;5015061;28;20323;-75
2022/01/20 12:11:35;;;;;;;;;;;5.80;96.00;;;5.53;100.00;99979.38;4981937;28;19939;-78
2022/01/20 12:14:01;;;;;;;;;;;5.90;96.20;;;5.43;100.00;99978.13;5015272;28;19920;-68
2022/01/20 12:16:27;;;;;;;;;;;5.90;96.30;;;5.37;100.00;99971.50;5015665;28;19919;-74
2022/01/20 12:18:54;;;;;;;;;;;5.90;96.20;;;5.14;100.00;99940.94;5014232;28;19917;-74
2022/01/20 12:21:20;;;;;;;;;;;5.80;96.20;;;5.04;100.00;99943.03;5014740;28;19917;-71
2022/01/20 12:23:46;;;;;;;;;;;5.80;96.30;;;5.25;100.00;99984.81;4997433;28;19925;-73
2022/01/20 12:26:12;;;;;;;;;;;5.70;96.50;;;5.26;100.00;99986.50;4980861;28;19914;-77